sensor_id;sensor_type;location;lat;lon;timestamp;pressure;altitude;pressure_sealevel;temperature;humidity
42671;BME280;28283;55.426;37.756;2023-11-21T00:02:54;98818.72;;;-7.97;73.73
42671;BME280;28283;55.426;37.756;2023-11-21T00:07:54;98789.25;;;-8.12;73.99
42671;BME280;28283;55.426;37.756;2023-11-21T00:12:55;98729.41;;;-8.55;74.24
42671;BME280;28283;55.426;37.756;2023-11-21T00:17:56;98755.75;;;-8.33;73.94
42671;BME280;28283;55.426;37.756;2023-11-21T00:22:56;98801.09;;;-7.94;74.34
42671;BME280;28283;55.426;37.756;2023-11-21T00:27:57;98799.22;;;-7.92;74.92
42671;BME280;28283;55.426;37.756;2023-11-21T00:32:57;98749.13;;;-8.24;73.93
42671;BME280;28283;55.426;37.756;2023-11-21T00:37:58;98774.69;;;-8.02;73.35
42671;BME280;28283;55.426;37.756;2023-11-21T00:42:59;98811.22;;;-7.75;73.56
42671;BME280;28283;55.426;37.756;2023-11-21T00:48:00;98796.19;;;-7.71;72.27
42671;BME280;28283;55.426;37.756;2023-11-21T00:53:01;98733.28;;;-8.21;72.45
42671;BME280;28283;55.426;37.756;2023-11-21T00:58:02;98727.84;;;-8.31;72.72
42671;BME280;28283;55.426;37.756;2023-11-21T01:03:05;98787.31;;;-7.96;72.72
42671;BME280;28283;55.426;37.756;2023-11-21T01:08:05;98786.97;;;-8.04;74.27
42671;BME280;28283;55.426;37.756;2023-11-21T01:13:06;98805.91;;;-7.73;72.77
42671;BME280;28283;55.426;37.756;2023-11-21T01:18:07;98803.66;;;-7.79;73.04
42671;BME280;28283;55.426;37.756;2023-11-21T01:23:08;98738.59;;;-8.22;73.22
42671;BME280;28283;55.426;37.756;2023-11-21T01:28:09;98775.34;;;-7.98;73.19
42671;BME280;28283;55.426;37.756;2023-11-21T01:33:10;98803.28;;;-7.73;72.99
42671;BME280;28283;55.426;37.756;2023-11-21T01:38:11;98794.28;;;-7.82;73.21
42671;BME280;28283;55.426;37.756;2023-11-21T01:43:11;98815.34;;;-7.58;72.09
42671;BME280;28283;55.426;37.756;2023-11-21T01:48:13;98765.41;;;-8.20;72.66
42671;BME280;28283;55.426;37.756;2023-11-21T01:53:15;98801.00;;;-7.92;73.42
42671;BME280;28283;55.426;37.756;2023-11-21T01:58:15;98807.69;;;-7.61;72.11
42671;BME280;28283;55.426;37.756;2023-11-21T02:03:17;98810.53;;;-7.91;72.62
42671;BME280;28283;55.426;37.756;2023-11-21T02:08:17;98812.00;;;-7.87;72.96
42671;BME280;28283;55.426;37.756;2023-11-21T02:13:19;98816.63;;;-7.78;72.83
42671;BME280;28283;55.426;37.756;2023-11-21T02:18:20;98822.88;;;-7.80;73.07
42671;BME280;28283;55.426;37.756;2023-11-21T02:23:22;98820.56;;;-7.85;73.54
42671;BME280;28283;55.426;37.756;2023-11-21T02:28:23;98808.09;;;-7.67;72.82
42671;BME280;28283;55.426;37.756;2023-11-21T02:33:26;98815.47;;;-7.74;71.65
42671;BME280;28283;55.426;37.756;2023-11-21T02:38:26;98821.56;;;-7.73;72.57
42671;BME280;28283;55.426;37.756;2023-11-21T02:43:27;98814.59;;;-7.87;72.65
42671;BME280;28283;55.426;37.756;2023-11-21T02:48:28;98833.59;;;-7.85;71.65
42671;BME280;28283;55.426;37.756;2023-11-21T02:53:29;98832.50;;;-7.95;71.99
42671;BME280;28283;55.426;37.756;2023-11-21T02:58:29;98833.53;;;-7.98;71.56
42671;BME280;28283;55.426;37.756;2023-11-21T03:03:30;98866.88;;;-7.89;72.57
42671;BME280;28283;55.426;37.756;2023-11-21T03:08:30;98874.03;;;-7.78;71.67
42671;BME280;28283;55.426;37.756;2023-11-21T03:13:31;98869.06;;;-7.41;70.98
42671;BME280;28283;55.426;37.756;2023-11-21T03:18:32;98848.34;;;-7.57;69.34
42671;BME280;28283;55.426;37.756;2023-11-21T03:23:32;98857.13;;;-7.45;68.58
42671;BME280;28283;55.426;37.756;2023-11-21T03:28:33;98862.06;;;-7.95;69.82
42671;BME280;28283;55.426;37.756;2023-11-21T03:33:34;98867.38;;;-7.96;71.66
42671;BME280;28283;55.426;37.756;2023-11-21T03:38:36;98757.13;;;-8.69;71.47
42671;BME280;28283;55.426;37.756;2023-11-21T03:43:37;98830.44;;;-7.90;71.80
42671;BME280;28283;55.426;37.756;2023-11-21T03:48:38;98820.56;;;-8.41;71.72
42671;BME280;28283;55.426;37.756;2023-11-21T03:53:39;98884.88;;;-7.57;71.33
42671;BME280;28283;55.426;37.756;2023-11-21T03:58:40;98870.69;;;-7.80;71.59
42671;BME280;28283;55.426;37.756;2023-11-21T04:03:41;98867.13;;;-7.79;71.74
42671;BME280;28283;55.426;37.756;2023-11-21T04:08:41;98873.44;;;-7.69;70.37
42671;BME280;28283;55.426;37.756;2023-11-21T04:13:42;98869.16;;;-7.70;70.96
42671;BME280;28283;55.426;37.756;2023-11-21T04:18:42;98821.16;;;-7.67;69.38
42671;BME280;28283;55.426;37.756;2023-11-21T04:23:43;98884.56;;;-7.79;68.67
42671;BME280;28283;55.426;37.756;2023-11-21T04:28:44;98870.91;;;-8.12;69.54
42671;BME280;28283;55.426;37.756;2023-11-21T04:33:45;98757.25;;;-8.70;70.76
42671;BME280;28283;55.426;37.756;2023-11-21T04:38:45;98877.13;;;-7.85;70.66
42671;BME280;28283;55.426;37.756;2023-11-21T04:43:46;98872.19;;;-7.90;69.83
42671;BME280;28283;55.426;37.756;2023-11-21T04:48:47;98882.50;;;-7.74;68.97
42671;BME280;28283;55.426;37.756;2023-11-21T04:53:48;98833.44;;;-7.96;69.32
42671;BME280;28283;55.426;37.756;2023-11-21T04:58:48;98876.84;;;-7.95;69.57
42671;BME280;28283;55.426;37.756;2023-11-21T05:03:49;98883.91;;;-7.83;69.65
42671;BME280;28283;55.426;37.756;2023-11-21T05:08:50;98908.84;;;-7.64;69.02
42671;BME280;28283;55.426;37.756;2023-11-21T05:13:51;98898.38;;;-8.06;69.47
42671;BME280;28283;55.426;37.756;2023-11-21T05:18:51;98851.41;;;-8.48;70.34
42671;BME280;28283;55.426;37.756;2023-11-21T05:23:52;98911.81;;;-8.12;70.55
42671;BME280;28283;55.426;37.756;2023-11-21T05:28:53;98900.81;;;-8.03;71.01
42671;BME280;28283;55.426;37.756;2023-11-21T05:33:53;98905.94;;;-8.01;69.89
42671;BME280;28283;55.426;37.756;2023-11-21T05:38:54;98910.59;;;-8.07;71.14
42671;BME280;28283;55.426;37.756;2023-11-21T05:43:55;98926.41;;;-8.10;70.63
42671;BME280;28283;55.426;37.756;2023-11-21T05:48:56;98787.38;;;-8.66;71.50
42671;BME280;28283;55.426;37.756;2023-11-21T05:53:57;98906.19;;;-7.92;69.82
42671;BME280;28283;55.426;37.756;2023-11-21T05:58:58;98924.13;;;-7.58;70.49
42671;BME280;28283;55.426;37.756;2023-11-21T06:03:58;98939.16;;;-7.76;70.00
42671;BME280;28283;55.426;37.756;2023-11-21T06:08:59;98942.63;;;-8.04;71.38
42671;BME280;28283;55.426;37.756;2023-11-21T06:14:00;98948.78;;;-8.20;72.63
42671;BME280;28283;55.426;37.756;2023-11-21T06:19:01;98940.00;;;-7.90;70.67
42671;BME280;28283;55.426;37.756;2023-11-21T06:24:01;98961.19;;;-8.09;72.25
42671;BME280;28283;55.426;37.756;2023-11-21T06:29:02;98944.88;;;-7.84;72.23
42671;BME280;28283;55.426;37.756;2023-11-21T06:34:03;98931.44;;;-8.07;71.76
42671;BME280;28283;55.426;37.756;2023-11-21T06:39:04;98933.50;;;-8.12;71.88
42671;BME280;28283;55.426;37.756;2023-11-21T06:44:09;98955.09;;;-7.95;72.84
42671;BME280;28283;55.426;37.756;2023-11-21T06:49:10;98960.41;;;-7.97;72.32
42671;BME280;28283;55.426;37.756;2023-11-21T06:54:12;98921.28;;;-8.11;73.54
42671;BME280;28283;55.426;37.756;2023-11-21T06:59:14;98943.28;;;-7.87;72.34
42671;BME280;28283;55.426;37.756;2023-11-21T07:04:15;98880.13;;;-8.35;72.86
42671;BME280;28283;55.426;37.756;2023-11-21T07:09:16;98962.34;;;-7.72;71.98
42671;BME280;28283;55.426;37.756;2023-11-21T07:14:16;98963.50;;;-7.90;71.89
42671;BME280;28283;55.426;37.756;2023-11-21T07:19:20;98942.53;;;-7.89;72.18
42671;BME280;28283;55.426;37.756;2023-11-21T07:24:21;98967.19;;;-7.65;71.90
42671;BME280;28283;55.426;37.756;2023-11-21T07:29:27;98952.69;;;-7.98;72.99
42671;BME280;28283;55.426;37.756;2023-11-21T07:34:29;98933.69;;;-8.15;72.28
42671;BME280;28283;55.426;37.756;2023-11-21T07:39:30;98968.13;;;-7.81;72.75
42671;BME280;28283;55.426;37.756;2023-11-21T07:44:31;98990.69;;;-7.80;72.41
42671;BME280;28283;55.426;37.756;2023-11-21T07:49:31;98935.63;;;-7.90;71.93
42671;BME280;28283;55.426;37.756;2023-11-21T07:54:32;98907.34;;;-7.69;71.07
42671;BME280;28283;55.426;37.756;2023-11-21T07:59:36;98966.28;;;-6.96;67.90
42671;BME280;28283;55.426;37.756;2023-11-21T08:04:36;98946.91;;;-7.33;67.25
42671;BME280;28283;55.426;37.756;2023-11-21T08:09:37;98934.69;;;-7.33;67.77
42671;BME280;28283;55.426;37.756;2023-11-21T08:14:38;98945.22;;;-7.90;69.75
42671;BME280;28283;55.426;37.756;2023-11-21T08:19:39;98877.72;;;-8.09;69.82
42671;BME280;28283;55.426;37.756;2023-11-21T08:24:40;98878.25;;;-8.18;69.91
42671;BME280;28283;55.426;37.756;2023-11-21T08:29:41;98965.78;;;-7.57;69.82
42671;BME280;28283;55.426;37.756;2023-11-21T08:34:42;98968.75;;;-7.49;70.02
42671;BME280;28283;55.426;37.756;2023-11-21T08:39:44;98931.81;;;-7.70;69.42
42671;BME280;28283;55.426;37.756;2023-11-21T08:44:45;98964.94;;;-7.57;69.09
42671;BME280;28283;55.426;37.756;2023-11-21T08:49:46;98968.75;;;-7.49;70.20
42671;BME280;28283;55.426;37.756;2023-11-21T08:54:48;98994.09;;;-7.09;67.50
42671;BME280;28283;55.426;37.756;2023-11-21T08:59:49;98945.94;;;-7.74;69.12
42671;BME280;28283;55.426;37.756;2023-11-21T09:04:55;98960.94;;;-7.63;68.90
42671;BME280;28283;55.426;37.756;2023-11-21T09:09:56;98981.53;;;-7.44;69.16
42671;BME280;28283;55.426;37.756;2023-11-21T09:14:57;98975.19;;;-7.54;67.69
42671;BME280;28283;55.426;37.756;2023-11-21T09:19:57;98986.47;;;-7.54;67.99
42671;BME280;28283;55.426;37.756;2023-11-21T09:24:58;98995.34;;;-7.15;67.90
42671;BME280;28283;55.426;37.756;2023-11-21T09:29:58;98986.53;;;-6.99;66.19
42671;BME280;28283;55.426;37.756;2023-11-21T09:34:59;98992.69;;;-7.42;66.68
42671;BME280;28283;55.426;37.756;2023-11-21T09:40:03;99011.59;;;-7.24;66.64
42671;BME280;28283;55.426;37.756;2023-11-21T09:45:27;98990.38;;;-7.46;66.88
42671;BME280;28283;55.426;37.756;2023-11-21T09:50:29;98934.22;;;-7.39;66.01
42671;BME280;28283;55.426;37.756;2023-11-21T09:55:34;98994.16;;;-7.23;64.57
42671;BME280;28283;55.426;37.756;2023-11-21T10:00:41;99000.63;;;-7.43;66.19
42671;BME280;28283;55.426;37.756;2023-11-21T10:05:43;98992.53;;;-7.39;67.72
42671;BME280;28283;55.426;37.756;2023-11-21T10:10:46;99002.19;;;-6.72;65.60
42671;BME280;28283;55.426;37.756;2023-11-21T10:15:51;99004.38;;;-7.06;66.57
42671;BME280;28283;55.426;37.756;2023-11-21T10:20:54;98985.38;;;-7.22;66.23
42671;BME280;28283;55.426;37.756;2023-11-21T10:25:56;98964.41;;;-6.94;65.13
42671;BME280;28283;55.426;37.756;2023-11-21T10:30:59;99002.69;;;-7.07;65.82
42671;BME280;28283;55.426;37.756;2023-11-21T10:36:00;98984.88;;;-6.87;65.54
42671;BME280;28283;55.426;37.756;2023-11-21T10:41:01;99010.91;;;-6.59;65.55
42671;BME280;28283;55.426;37.756;2023-11-21T10:46:05;99003.53;;;-6.79;65.65
42671;BME280;28283;55.426;37.756;2023-11-21T10:51:07;98929.84;;;-7.39;65.10
42671;BME280;28283;55.426;37.756;2023-11-21T10:56:08;99004.59;;;-7.23;66.27
42671;BME280;28283;55.426;37.756;2023-11-21T11:01:18;98993.78;;;-7.17;66.43
42671;BME280;28283;55.426;37.756;2023-11-21T11:06:22;98933.47;;;-7.69;66.18
42671;BME280;28283;55.426;37.756;2023-11-21T11:11:26;98984.75;;;-6.99;67.47
42671;BME280;28283;55.426;37.756;2023-11-21T11:16:27;99007.66;;;-7.17;66.73
42671;BME280;28283;55.426;37.756;2023-11-21T11:32:28;98968.03;;;-7.23;67.26
42671;BME280;28283;55.426;37.756;2023-11-21T11:37:34;99014.63;;;-7.03;67.76
42671;BME280;28283;55.426;37.756;2023-11-21T11:42:35;99008.75;;;-7.06;68.64
42671;BME280;28283;55.426;37.756;2023-11-21T11:47:36;98960.19;;;-7.51;70.34
42671;BME280;28283;55.426;37.756;2023-11-21T11:52:49;99016.84;;;-6.97;69.27
42671;BME280;28283;55.426;37.756;2023-11-21T11:57:53;99035.19;;;-7.25;70.08
42671;BME280;28283;55.426;37.756;2023-11-21T12:03:00;99046.97;;;-7.33;70.61
42671;BME280;28283;55.426;37.756;2023-11-21T12:08:04;99014.09;;;-7.08;69.09
42671;BME280;28283;55.426;37.756;2023-11-21T12:13:10;99037.16;;;-6.87;68.05
42671;BME280;28283;55.426;37.756;2023-11-21T12:18:12;99040.56;;;-7.00;68.52
42671;BME280;28283;55.426;37.756;2023-11-21T12:23:12;99047.47;;;-6.99;69.12
42671;BME280;28283;55.426;37.756;2023-11-21T12:28:15;98995.25;;;-7.55;70.35
42671;BME280;28283;55.426;37.756;2023-11-21T12:33:17;98963.97;;;-7.98;71.34
42671;BME280;28283;55.426;37.756;2023-11-21T12:38:18;99008.34;;;-7.27;71.47
42671;BME280;28283;55.426;37.756;2023-11-21T12:43:20;99054.78;;;-7.18;70.14
42671;BME280;28283;55.426;37.756;2023-11-21T12:48:21;99042.19;;;-7.26;70.53
42671;BME280;28283;55.426;37.756;2023-11-21T12:53:25;99042.88;;;-7.37;70.36
42671;BME280;28283;55.426;37.756;2023-11-21T12:58:26;99058.22;;;-7.32;70.71
42671;BME280;28283;55.426;37.756;2023-11-21T13:03:27;99054.06;;;-7.49;70.96
42671;BME280;28283;55.426;37.756;2023-11-21T13:08:28;98998.53;;;-7.80;70.98
42671;BME280;28283;55.426;37.756;2023-11-21T13:13:30;99041.41;;;-7.55;72.23
42671;BME280;28283;55.426;37.756;2023-11-21T13:18:32;99082.78;;;-7.49;72.13
42671;BME280;28283;55.426;37.756;2023-11-21T13:23:34;99035.31;;;-7.99;73.18
42671;BME280;28283;55.426;37.756;2023-11-21T13:28:36;99096.75;;;-7.64;71.95
42671;BME280;28283;55.426;37.756;2023-11-21T13:33:40;99096.41;;;-7.58;73.27
42671;BME280;28283;55.426;37.756;2023-11-21T13:38:43;99094.34;;;-7.53;71.98
42671;BME280;28283;55.426;37.756;2023-11-21T13:43:44;99095.34;;;-7.56;71.57
42671;BME280;28283;55.426;37.756;2023-11-21T13:48:55;99107.31;;;-7.52;71.73
42671;BME280;28283;55.426;37.756;2023-11-21T13:53:56;99117.75;;;-7.66;71.82
42671;BME280;28283;55.426;37.756;2023-11-21T13:58:57;99121.41;;;-7.84;72.81
42671;BME280;28283;55.426;37.756;2023-11-21T14:04:04;99138.13;;;-7.73;71.84
42671;BME280;28283;55.426;37.756;2023-11-21T14:09:22;99130.84;;;-7.82;73.29
42671;BME280;28283;55.426;37.756;2023-11-21T14:14:25;99146.50;;;-7.82;72.57
42671;BME280;28283;55.426;37.756;2023-11-21T14:19:26;99133.91;;;-7.75;72.79
42671;BME280;28283;55.426;37.756;2023-11-21T14:24:33;99158.44;;;-7.78;72.41
42671;BME280;28283;55.426;37.756;2023-11-21T14:29:34;99138.09;;;-7.87;72.71
42671;BME280;28283;55.426;37.756;2023-11-21T14:34:39;99122.38;;;-8.16;73.03
42671;BME280;28283;55.426;37.756;2023-11-21T14:39:41;99133.41;;;-8.11;74.04
42671;BME280;28283;55.426;37.756;2023-11-21T14:44:48;99082.91;;;-8.40;74.77
42671;BME280;28283;55.426;37.756;2023-11-21T14:49:48;99088.59;;;-8.33;74.71
42671;BME280;28283;55.426;37.756;2023-11-21T14:54:56;99142.25;;;-7.99;74.73
42671;BME280;28283;55.426;37.756;2023-11-21T15:00:19;99129.00;;;-8.40;75.43
42671;BME280;28283;55.426;37.756;2023-11-21T15:05:52;99151.91;;;-8.15;75.99
42671;BME280;28283;55.426;37.756;2023-11-21T15:10:54;99165.28;;;-8.06;76.42
42671;BME280;28283;55.426;37.756;2023-11-21T15:15:55;99146.19;;;-8.22;76.25
42671;BME280;28283;55.426;37.756;2023-11-21T15:20:56;99180.91;;;-8.06;76.65
42671;BME280;28283;55.426;37.756;2023-11-21T15:25:57;99185.56;;;-8.11;76.73
42671;BME280;28283;55.426;37.756;2023-11-21T15:30:58;99124.34;;;-8.35;75.62
42671;BME280;28283;55.426;37.756;2023-11-21T15:35:58;99168.22;;;-8.12;75.15
42671;BME280;28283;55.426;37.756;2023-11-21T15:40:59;99154.84;;;-8.06;74.72
42671;BME280;28283;55.426;37.756;2023-11-21T15:46:00;99178.56;;;-8.10;74.00
42671;BME280;28283;55.426;37.756;2023-11-21T15:51:02;99186.03;;;-8.04;74.13
42671;BME280;28283;55.426;37.756;2023-11-21T15:56:04;99176.09;;;-7.97;74.65
42671;BME280;28283;55.426;37.756;2023-11-21T16:01:05;99057.69;;;-8.70;73.44
42671;BME280;28283;55.426;37.756;2023-11-21T16:06:09;99176.53;;;-8.05;73.51
42671;BME280;28283;55.426;37.756;2023-11-21T16:11:11;99184.97;;;-8.16;74.31
42671;BME280;28283;55.426;37.756;2023-11-21T16:16:12;99132.72;;;-8.45;73.11
42671;BME280;28283;55.426;37.756;2023-11-21T16:21:13;99125.16;;;-8.49;72.97
42671;BME280;28283;55.426;37.756;2023-11-21T16:26:15;99126.50;;;-8.58;73.99
42671;BME280;28283;55.426;37.756;2023-11-21T16:31:24;99119.06;;;-8.64;73.77
42671;BME280;28283;55.426;37.756;2023-11-21T16:36:24;99192.38;;;-8.24;73.15
42671;BME280;28283;55.426;37.756;2023-11-21T16:41:25;99152.75;;;-8.45;73.02
42671;BME280;28283;55.426;37.756;2023-11-21T16:46:25;99162.94;;;-8.26;73.87
42671;BME280;28283;55.426;37.756;2023-11-21T16:51:26;99168.91;;;-8.40;73.63
42671;BME280;28283;55.426;37.756;2023-11-21T16:56:27;99115.34;;;-8.92;73.92
42671;BME280;28283;55.426;37.756;2023-11-21T17:01:28;99160.91;;;-8.51;73.42
42671;BME280;28283;55.426;37.756;2023-11-21T17:06:29;99160.38;;;-8.58;74.01
42671;BME280;28283;55.426;37.756;2023-11-21T17:11:31;99210.09;;;-8.45;73.38
42671;BME280;28283;55.426;37.756;2023-11-21T17:16:32;99079.66;;;-9.22;72.88
42671;BME280;28283;55.426;37.756;2023-11-21T17:21:33;99171.41;;;-8.69;73.84
42671;BME280;28283;55.426;37.756;2023-11-21T17:26:33;99185.38;;;-8.70;72.93
42671;BME280;28283;55.426;37.756;2023-11-21T17:31:34;99170.91;;;-8.75;73.00
42671;BME280;28283;55.426;37.756;2023-11-21T17:36:35;99210.25;;;-8.48;72.29
42671;BME280;28283;55.426;37.756;2023-11-21T17:41:36;99157.22;;;-8.79;73.13
42671;BME280;28283;55.426;37.756;2023-11-21T17:46:37;99172.84;;;-8.79;72.95
42671;BME280;28283;55.426;37.756;2023-11-21T17:51:41;99169.91;;;-8.73;72.74
42671;BME280;28283;55.426;37.756;2023-11-21T17:56:41;99193.19;;;-8.54;72.43
42671;BME280;28283;55.426;37.756;2023-11-21T18:01:42;99206.03;;;-8.51;72.62
42671;BME280;28283;55.426;37.756;2023-11-21T18:06:43;99195.81;;;-8.54;73.16
42671;BME280;28283;55.426;37.756;2023-11-21T18:11:45;99211.00;;;-8.62;72.37
42671;BME280;28283;55.426;37.756;2023-11-21T18:16:49;99157.69;;;-9.04;73.15
42671;BME280;28283;55.426;37.756;2023-11-21T18:21:50;99166.59;;;-8.92;73.83
42671;BME280;28283;55.426;37.756;2023-11-21T18:26:51;99210.84;;;-8.75;72.43
42671;BME280;28283;55.426;37.756;2023-11-21T18:31:52;99218.81;;;-8.78;72.99
42671;BME280;28283;55.426;37.756;2023-11-21T18:36:52;99224.16;;;-8.81;73.29
42671;BME280;28283;55.426;37.756;2023-11-21T18:41:53;99225.25;;;-8.85;73.07
42671;BME280;28283;55.426;37.756;2023-11-21T18:46:55;99201.28;;;-8.92;73.90
42671;BME280;28283;55.426;37.756;2023-11-21T18:51:56;99180.34;;;-9.06;72.94
42671;BME280;28283;55.426;37.756;2023-11-21T18:56:57;99223.03;;;-8.75;73.14
42671;BME280;28283;55.426;37.756;2023-11-21T19:01:59;99239.56;;;-8.76;72.76
42671;BME280;28283;55.426;37.756;2023-11-21T19:07:01;99157.75;;;-9.22;72.72
42671;BME280;28283;55.426;37.756;2023-11-21T19:12:03;99219.47;;;-8.74;72.93
42671;BME280;28283;55.426;37.756;2023-11-21T19:17:04;99220.22;;;-8.72;72.51
42671;BME280;28283;55.426;37.756;2023-11-21T19:22:05;99170.91;;;-9.25;72.68
42671;BME280;28283;55.426;37.756;2023-11-21T19:27:05;99239.63;;;-8.78;73.22
42671;BME280;28283;55.426;37.756;2023-11-21T19:32:06;99217.03;;;-8.77;72.61
42671;BME280;28283;55.426;37.756;2023-11-21T19:37:07;99200.03;;;-8.85;71.56
42671;BME280;28283;55.426;37.756;2023-11-21T19:42:08;99225.19;;;-8.84;71.79
42671;BME280;28283;55.426;37.756;2023-11-21T19:47:08;99207.06;;;-9.03;71.68
42671;BME280;28283;55.426;37.756;2023-11-21T19:52:09;99128.31;;;-9.39;71.54
42671;BME280;28283;55.426;37.756;2023-11-21T19:57:10;99212.84;;;-9.13;71.90
42671;BME280;28283;55.426;37.756;2023-11-21T20:02:14;99246.03;;;-8.84;72.66
42671;BME280;28283;55.426;37.756;2023-11-21T20:07:15;99252.94;;;-8.82;72.02
42671;BME280;28283;55.426;37.756;2023-11-21T20:12:18;99206.56;;;-9.09;72.45
42671;BME280;28283;55.426;37.756;2023-11-21T20:17:19;99246.72;;;-8.80;71.24
42671;BME280;28283;55.426;37.756;2023-11-21T20:22:20;99254.59;;;-8.81;73.04
42671;BME280;28283;55.426;37.756;2023-11-21T20:27:21;99262.81;;;-8.89;72.59
42671;BME280;28283;55.426;37.756;2023-11-21T20:32:21;99258.56;;;-8.74;72.36
42671;BME280;28283;55.426;37.756;2023-11-21T20:37:24;99236.22;;;-8.78;72.20
42671;BME280;28283;55.426;37.756;2023-11-21T20:42:25;99234.09;;;-8.88;72.75
42671;BME280;28283;55.426;37.756;2023-11-21T20:47:25;99252.59;;;-8.76;73.47
42671;BME280;28283;55.426;37.756;2023-11-21T20:52:26;99236.06;;;-9.09;73.01
42671;BME280;28283;55.426;37.756;2023-11-21T20:57:27;99251.34;;;-8.69;72.27
42671;BME280;28283;55.426;37.756;2023-11-21T21:02:29;99270.19;;;-8.64;72.23
42671;BME280;28283;55.426;37.756;2023-11-21T21:07:29;99244.81;;;-8.94;73.37
42671;BME280;28283;55.426;37.756;2023-11-21T21:12:30;99219.94;;;-9.33;72.76
42671;BME280;28283;55.426;37.756;2023-11-21T21:17:30;99243.25;;;-9.14;73.66
42671;BME280;28283;55.426;37.756;2023-11-21T21:22:31;99229.69;;;-9.03;72.79
42671;BME280;28283;55.426;37.756;2023-11-21T21:27:32;99267.25;;;-8.74;72.47
42671;BME280;28283;55.426;37.756;2023-11-21T21:32:32;99291.25;;;-8.69;72.64
42671;BME280;28283;55.426;37.756;2023-11-21T21:37:34;99297.69;;;-8.58;71.53
42671;BME280;28283;55.426;37.756;2023-11-21T21:42:35;99285.47;;;-8.58;72.22
42671;BME280;28283;55.426;37.756;2023-11-21T21:47:35;99266.38;;;-8.74;72.23
42671;BME280;28283;55.426;37.756;2023-11-21T21:52:36;99278.69;;;-8.45;71.97
42671;BME280;28283;55.426;37.756;2023-11-21T21:57:38;99236.31;;;-8.64;71.99
42671;BME280;28283;55.426;37.756;2023-11-21T22:02:40;99259.75;;;-8.64;71.08
42671;BME280;28283;55.426;37.756;2023-11-21T22:07:42;99268.34;;;-8.62;71.15
42671;BME280;28283;55.426;37.756;2023-11-21T22:12:42;99252.00;;;-8.81;71.27
42671;BME280;28283;55.426;37.756;2023-11-21T22:17:43;99260.63;;;-8.81;71.86
42671;BME280;28283;55.426;37.756;2023-11-21T22:22:44;99260.56;;;-8.79;71.73
42671;BME280;28283;55.426;37.756;2023-11-21T22:27:44;99272.34;;;-8.72;71.68
42671;BME280;28283;55.426;37.756;2023-11-21T22:32:45;99225.97;;;-9.15;71.73
42671;BME280;28283;55.426;37.756;2023-11-21T22:37:45;99282.66;;;-8.87;72.20
42671;BME280;28283;55.426;37.756;2023-11-21T22:42:46;99266.00;;;-9.00;72.34
42671;BME280;28283;55.426;37.756;2023-11-21T22:47:46;99257.22;;;-9.15;72.65
42671;BME280;28283;55.426;37.756;2023-11-21T22:52:48;99243.81;;;-9.25;72.78
42671;BME280;28283;55.426;37.756;2023-11-21T22:57:52;99274.91;;;-9.22;73.01
42671;BME280;28283;55.426;37.756;2023-11-21T23:02:53;99237.25;;;-9.49;74.10
42671;BME280;28283;55.426;37.756;2023-11-21T23:07:55;99295.41;;;-8.98;73.01
42671;BME280;28283;55.426;37.756;2023-11-21T23:12:55;99296.78;;;-9.08;73.17
42671;BME280;28283;55.426;37.756;2023-11-21T23:17:56;99295.72;;;-9.04;72.77
42671;BME280;28283;55.426;37.756;2023-11-21T23:22:57;99247.44;;;-9.45;73.37
42671;BME280;28283;55.426;37.756;2023-11-21T23:27:58;99300.81;;;-9.03;73.20
42671;BME280;28283;55.426;37.756;2023-11-21T23:33:20;99281.13;;;-9.42;74.06
42671;BME280;28283;55.426;37.756;2023-11-21T23:38:20;99278.19;;;-9.35;73.91
42671;BME280;28283;55.426;37.756;2023-11-21T23:43:21;99329.41;;;-9.01;73.73
42671;BME280;28283;55.426;37.756;2023-11-21T23:48:22;99311.31;;;-8.87;73.11
42671;BME280;28283;55.426;37.756;2023-11-21T23:53:22;99319.44;;;-8.93;74.03
42671;BME280;28283;55.426;37.756;2023-11-21T23:58:23;99312.25;;;-8.88;73.07
